Time;durP1;ratioP1;P1;durP2;ratioP2;P2;SDS_P1;SDS_P2;PMS_P1;PMS_P2;Temp;Humidity;BMP_temperature;BMP_pressure;BME280_temperature;BME280_humidity;BME280_pressure;Samples;Min_cycle;Max_cycle;Signal;HPM_P1;HPM_P2
2023/10/26 00:01:08;;;;;;;;;;;9.90;99.90;;;;;;4846980;29;20014;-86
2023/10/26 00:03:34;;;;;;;;;;;9.90;99.90;;;;;;4846351;29;19928;-87
2023/10/26 00:05:59;;;;;;;;;;;9.90;99.90;;;;;;4846706;29;20399;-87
2023/10/26 00:08:25;;;;;;;;;;;9.90;99.90;;;;;;4862122;29;19928;-88
2023/10/26 00:10:51;;;;;;;;;;;9.90;99.90;;;;;;4860869;29;19928;-86
2023/10/26 00:13:17;;;;;;;;;;;9.90;99.90;;;;;;4861058;29;20015;-86
2023/10/26 00:15:42;;;;;;;;;;;10.00;99.90;;;;;;4862491;29;20339;-87
2023/10/26 00:18:08;;;;;;;;;;;10.00;99.90;;;;;;4863492;29;19984;-87
2023/10/26 00:20:33;;;;;;;;;;;9.90;99.90;;;;;;4861316;29;19928;-86
2023/10/26 00:22:59;;;;;;;;;;;9.90;99.90;;;;;;4862104;29;19974;-86
2023/10/26 00:25:24;;;;;;;;;;;9.90;99.90;;;;;;4861947;29;20069;-88
2023/10/26 00:27:51;;;;;;;;;;;9.90;99.90;;;;;;4861369;29;19936;-87
2023/10/26 00:30:16;;;;;;;;;;;9.90;99.90;;;;;;4862588;29;20268;-87
2023/10/26 00:32:42;;;;;;;;;;;9.90;99.90;;;;;;4862038;29;19928;-89
2023/10/26 00:35:08;;;;;;;;;;;9.90;99.90;;;;;;4861644;29;19928;-87
2023/10/26 00:37:34;;;;;;;;;;;9.90;99.90;;;;;;4860909;29;19932;-86
2023/10/26 00:39:59;;;;;;;;;;;9.90;99.90;;;;;;4860873;29;19928;-86
2023/10/26 00:42:25;;;;;;;;;;;9.90;99.90;;;;;;4860856;29;19928;-86
2023/10/26 00:44:53;;;;;;;;;;;9.90;99.90;;;;;;4860710;29;20019;-88
2023/10/26 00:47:19;;;;;;;;;;;9.90;99.90;;;;;;4860836;29;19928;-87
2023/10/26 00:49:44;;;;;;;;;;;9.90;99.90;;;;;;4860660;29;20023;-87
2023/10/26 00:52:11;;;;;;;;;;;9.90;99.90;;;;;;4861564;29;19928;-86
2023/10/26 00:54:39;;;;;;;;;;;9.90;99.90;;;;;;4860365;29;19932;-86
2023/10/26 00:57:04;;;;;;;;;;;9.90;99.90;;;;;;4861656;29;19928;-87
2023/10/26 00:59:30;;;;;;;;;;;9.90;99.90;;;;;;4861115;29;19928;-86
2023/10/26 01:01:57;;;;;;;;;;;9.90;99.90;;;;;;4860635;29;19928;-88
2023/10/26 01:04:23;;;;;;;;;;;9.90;99.90;;;;;;4862199;29;20317;-88
2023/10/26 01:06:48;;;;;;;;;;;9.90;99.90;;;;;;4861644;29;19948;-90
2023/10/26 01:09:17;;;;;;;;;;;9.90;99.90;;;;;;4860587;29;19928;-86
2023/10/26 01:11:42;;;;;;;;;;;9.90;99.90;;;;;;4860878;29;19997;-87
2023/10/26 01:14:08;;;;;;;;;;;9.90;99.90;;;;;;4861452;29;20025;-86
2023/10/26 01:16:34;;;;;;;;;;;9.90;99.90;;;;;;4861319;29;19979;-86
2023/10/26 01:19:00;;;;;;;;;;;9.80;99.90;;;;;;4860528;29;19983;-87
2023/10/26 01:21:27;;;;;;;;;;;9.80;99.90;;;;;;4859801;29;19928;-86
2023/10/26 01:23:52;;;;;;;;;;;9.80;99.90;;;;;;4861158;29;19992;-87
2023/10/26 01:26:18;;;;;;;;;;;9.80;99.90;;;;;;4861121;29;19963;-87
2023/10/26 01:28:44;;;;;;;;;;;9.80;99.90;;;;;;4862759;29;20380;-87
2023/10/26 01:31:10;;;;;;;;;;;9.80;99.90;;;;;;4864146;29;19976;-87
2023/10/26 01:33:35;;;;;;;;;;;9.80;99.90;;;;;;4864956;29;19934;-86
2023/10/26 01:36:01;;;;;;;;;;;9.80;99.90;;;;;;4864988;29;19976;-87
2023/10/26 01:38:27;;;;;;;;;;;9.70;99.90;;;;;;4864278;29;19935;-86
2023/10/26 01:40:52;;;;;;;;;;;9.70;99.90;;;;;;4864823;29;19940;-86
2023/10/26 01:43:18;;;;;;;;;;;9.70;99.90;;;;;;4864868;29;20372;-87
2023/10/26 01:45:44;;;;;;;;;;;9.70;99.90;;;;;;4863977;29;19967;-86
2023/10/26 01:48:10;;;;;;;;;;;9.70;99.90;;;;;;4863579;29;20304;-88
2023/10/26 01:50:35;;;;;;;;;;;9.60;99.90;;;;;;4864046;29;19928;-87
2023/10/26 01:53:01;;;;;;;;;;;9.60;99.90;;;;;;4833046;29;19986;-88
2023/10/26 01:55:26;;;;;;;;;;;9.60;99.90;;;;;;4864185;29;19928;-86
2023/10/26 01:57:52;;;;;;;;;;;9.50;99.90;;;;;;4848308;29;19935;-86
2023/10/26 02:00:18;;;;;;;;;;;9.50;99.90;;;;;;4864627;29;19979;-86
2023/10/26 02:02:46;;;;;;;;;;;9.50;99.90;;;;;;4879433;29;20064;-88
2023/10/26 02:05:11;;;;;;;;;;;9.50;99.90;;;;;;4863525;29;20032;-86
2023/10/26 02:07:37;;;;;;;;;;;9.50;99.90;;;;;;4864558;29;19928;-86
2023/10/26 02:10:03;;;;;;;;;;;9.50;99.90;;;;;;4863208;29;20332;-87
2023/10/26 02:12:28;;;;;;;;;;;9.50;99.90;;;;;;4862988;29;19934;-87
2023/10/26 02:14:54;;;;;;;;;;;9.50;99.90;;;;;;4863731;29;19934;-86
2023/10/26 02:17:19;;;;;;;;;;;9.50;99.90;;;;;;4848603;29;20368;-87
2023/10/26 02:19:45;;;;;;;;;;;9.50;99.90;;;;;;4864101;29;19928;-86
2023/10/26 02:22:11;;;;;;;;;;;9.50;99.90;;;;;;4862947;29;19999;-88
2023/10/26 02:24:36;;;;;;;;;;;9.50;99.90;;;;;;4847490;29;19936;-88
2023/10/26 02:27:02;;;;;;;;;;;9.50;99.90;;;;;;4863143;29;19928;-87
2023/10/26 02:29:27;;;;;;;;;;;9.50;99.90;;;;;;4862834;29;20415;-86
2023/10/26 02:31:53;;;;;;;;;;;9.60;99.90;;;;;;4863705;29;19932;-86
2023/10/26 02:34:18;;;;;;;;;;;9.60;99.90;;;;;;4864646;29;20396;-90
2023/10/26 02:36:44;;;;;;;;;;;9.60;99.90;;;;;;4863919;29;19928;-86
2023/10/26 02:39:09;;;;;;;;;;;9.60;99.90;;;;;;4861802;29;19928;-86
2023/10/26 02:41:35;;;;;;;;;;;9.60;99.90;;;;;;4862358;29;20364;-86
2023/10/26 02:44:01;;;;;;;;;;;9.60;99.90;;;;;;4865480;29;20026;-86
2023/10/26 02:46:26;;;;;;;;;;;9.60;99.90;;;;;;4865847;29;19936;-88
2023/10/26 02:48:52;;;;;;;;;;;9.60;99.90;;;;;;4863734;29;19932;-87
2023/10/26 02:51:17;;;;;;;;;;;9.60;99.90;;;;;;4864933;29;20296;-87
2023/10/26 02:53:43;;;;;;;;;;;9.60;99.90;;;;;;4863243;29;19932;-87
2023/10/26 02:56:08;;;;;;;;;;;9.60;99.90;;;;;;4847649;29;20376;-86
2023/10/26 02:58:34;;;;;;;;;;;9.60;99.90;;;;;;4847458;29;19984;-87
2023/10/26 03:01:00;;;;;;;;;;;9.60;99.90;;;;;;4862716;29;19932;-85
2023/10/26 03:03:25;;;;;;;;;;;9.60;99.90;;;;;;4862511;29;19951;-86
2023/10/26 03:05:51;;;;;;;;;;;9.60;99.90;;;;;;4863695;29;19928;-87
2023/10/26 03:08:17;;;;;;;;;;;9.60;99.90;;;;;;4862784;29;20466;-86
2023/10/26 03:10:43;;;;;;;;;;;9.60;99.90;;;;;;4864008;29;19982;-89
2023/10/26 03:13:09;;;;;;;;;;;9.60;99.90;;;;;;4864023;29;19928;-86
2023/10/26 03:15:35;;;;;;;;;;;9.60;99.90;;;;;;4864542;29;19928;-86
2023/10/26 03:18:01;;;;;;;;;;;9.60;99.90;;;;;;4863384;29;19935;-86
2023/10/26 03:20:26;;;;;;;;;;;9.60;99.90;;;;;;4863789;29;19934;-89
2023/10/26 03:22:52;;;;;;;;;;;9.60;99.90;;;;;;4863611;29;19932;-87
2023/10/26 03:25:18;;;;;;;;;;;9.60;99.90;;;;;;4862079;29;20338;-86
2023/10/26 03:27:44;;;;;;;;;;;9.60;99.90;;;;;;4862161;29;19979;-87
2023/10/26 03:30:09;;;;;;;;;;;9.60;99.90;;;;;;4861964;29;19983;-87
2023/10/26 03:32:35;;;;;;;;;;;9.60;99.90;;;;;;4846539;29;19935;-87
2023/10/26 03:35:01;;;;;;;;;;;9.60;99.90;;;;;;4861597;29;19928;-88
2023/10/26 03:37:27;;;;;;;;;;;9.60;99.90;;;;;;4861804;29;19996;-86
2023/10/26 03:39:53;;;;;;;;;;;9.60;99.90;;;;;;4862126;29;19932;-87
2023/10/26 03:42:19;;;;;;;;;;;9.50;99.90;;;;;;4861740;29;19935;-87
2023/10/26 03:44:44;;;;;;;;;;;9.50;99.90;;;;;;4862140;29;20011;-87
2023/10/26 03:47:10;;;;;;;;;;;9.50;99.90;;;;;;4861778;29;20061;-86
2023/10/26 03:49:36;;;;;;;;;;;9.50;99.90;;;;;;4861760;29;19984;-87
2023/10/26 03:52:01;;;;;;;;;;;9.50;99.90;;;;;;4862054;29;19935;-87
2023/10/26 03:54:27;;;;;;;;;;;9.50;99.90;;;;;;4861682;29;19928;-91
2023/10/26 03:56:53;;;;;;;;;;;9.50;99.90;;;;;;4861536;29;20280;-87
2023/10/26 03:59:18;;;;;;;;;;;9.50;99.90;;;;;;4861897;29;20023;-88
2023/10/26 04:01:44;;;;;;;;;;;9.60;99.90;;;;;;4861467;29;19990;-87
2023/10/26 04:04:09;;;;;;;;;;;9.60;99.90;;;;;;4861543;29;19928;-87
2023/10/26 04:06:35;;;;;;;;;;;9.60;99.90;;;;;;4861370;29;19928;-88
2023/10/26 04:09:01;;;;;;;;;;;9.60;99.90;;;;;;4862335;29;19928;-86
2023/10/26 04:11:26;;;;;;;;;;;9.50;99.90;;;;;;4861379;29;19928;-87
2023/10/26 04:13:54;;;;;;;;;;;9.50;99.90;;;;;;4861186;29;19935;-86
2023/10/26 04:16:20;;;;;;;;;;;9.50;99.90;;;;;;4861179;29;19940;-88
2023/10/26 04:18:46;;;;;;;;;;;9.50;99.90;;;;;;4861024;29;19944;-88
2023/10/26 04:21:11;;;;;;;;;;;9.50;99.90;;;;;;4863973;29;19935;-86
2023/10/26 04:23:37;;;;;;;;;;;9.60;99.90;;;;;;4862669;29;20288;-86
2023/10/26 04:26:03;;;;;;;;;;;9.50;99.90;;;;;;4860955;29;20021;-86
2023/10/26 04:28:28;;;;;;;;;;;9.50;99.90;;;;;;4861661;29;20015;-87
2023/10/26 04:30:54;;;;;;;;;;;9.60;99.90;;;;;;4861007;29;19935;-86
2023/10/26 04:33:19;;;;;;;;;;;9.50;99.90;;;;;;4861928;29;19935;-86
2023/10/26 04:35:46;;;;;;;;;;;9.60;99.90;;;;;;4860471;29;19974;-86
2023/10/26 04:38:12;;;;;;;;;;;9.60;99.90;;;;;;4861926;29;19975;-87
2023/10/26 04:40:38;;;;;;;;;;;9.60;99.90;;;;;;4861403;29;19982;-87
2023/10/26 04:43:05;;;;;;;;;;;9.60;99.90;;;;;;4862372;29;19932;-86
2023/10/26 04:45:31;;;;;;;;;;;9.60;99.90;;;;;;4860791;29;20093;-87
2023/10/26 04:47:57;;;;;;;;;;;9.60;99.90;;;;;;4860911;29;20489;-86
2023/10/26 04:50:23;;;;;;;;;;;9.60;99.90;;;;;;4860818;29;19935;-87
2023/10/26 04:52:48;;;;;;;;;;;9.60;99.90;;;;;;4845288;29;19928;-90
2023/10/26 04:55:14;;;;;;;;;;;9.50;99.90;;;;;;4844649;29;19935;-87
2023/10/26 04:57:40;;;;;;;;;;;9.50;99.90;;;;;;4861461;29;19928;-86
2023/10/26 05:00:09;;;;;;;;;;;9.50;99.90;;;;;;4861361;29;20029;-87
2023/10/26 05:02:38;;;;;;;;;;;9.50;99.90;;;;;;4860987;29;19935;-86
2023/10/26 05:05:04;;;;;;;;;;;9.50;99.90;;;;;;4861680;29;19939;-87
2023/10/26 05:07:30;;;;;;;;;;;9.40;99.90;;;;;;4860547;29;19928;-88
2023/10/26 05:10:05;;;;;;;;;;;9.40;99.90;;;;;;4860989;29;20277;-87
2023/10/26 05:12:31;;;;;;;;;;;9.30;99.90;;;;;;4863116;29;19928;-87
2023/10/26 05:14:56;;;;;;;;;;;9.30;99.90;;;;;;4847919;29;19935;-86
2023/10/26 05:17:22;;;;;;;;;;;9.30;99.90;;;;;;4863287;29;20020;-87
2023/10/26 05:19:48;;;;;;;;;;;9.30;99.90;;;;;;4861576;29;19928;-87
2023/10/26 05:22:13;;;;;;;;;;;9.20;99.90;;;;;;4860399;29;20311;-87
2023/10/26 05:24:39;;;;;;;;;;;9.20;99.90;;;;;;4845059;29;19934;-88
2023/10/26 05:27:05;;;;;;;;;;;9.10;99.90;;;;;;4861941;29;19986;-87
2023/10/26 05:29:31;;;;;;;;;;;9.10;99.90;;;;;;4861490;29;19988;-87
2023/10/26 05:31:58;;;;;;;;;;;9.00;99.90;;;;;;4860297;29;20268;-86
2023/10/26 05:34:23;;;;;;;;;;;8.90;99.90;;;;;;4860079;29;20340;-87
2023/10/26 05:36:49;;;;;;;;;;;9.00;99.90;;;;;;4845651;29;19932;-88
2023/10/26 05:39:15;;;;;;;;;;;8.80;99.90;;;;;;4861222;29;20027;-93
2023/10/26 05:41:40;;;;;;;;;;;8.80;99.90;;;;;;4860280;29;20398;-86
2023/10/26 05:44:06;;;;;;;;;;;8.70;99.90;;;;;;4861771;29;19932;-87
2023/10/26 05:46:32;;;;;;;;;;;8.60;99.90;;;;;;4845443;29;20380;-90
2023/10/26 05:48:57;;;;;;;;;;;8.60;99.90;;;;;;4844918;29;19979;-87
2023/10/26 05:51:23;;;;;;;;;;;8.50;99.90;;;;;;4860167;29;19932;-87
2023/10/26 05:53:49;;;;;;;;;;;8.40;99.90;;;;;;4859955;29;19935;-86
2023/10/26 05:56:14;;;;;;;;;;;8.40;99.90;;;;;;4861338;29;19975;-86
2023/10/26 05:58:40;;;;;;;;;;;8.40;99.90;;;;;;4860757;29;20249;-90
2023/10/26 06:01:05;;;;;;;;;;;8.30;99.90;;;;;;4860257;29;19928;-86
2023/10/26 06:03:31;;;;;;;;;;;8.30;99.90;;;;;;4844588;29;20026;-87
2023/10/26 06:05:57;;;;;;;;;;;8.40;99.90;;;;;;4859792;29;19994;-88
2023/10/26 06:08:23;;;;;;;;;;;8.40;99.90;;;;;;4860075;29;19928;-87
2023/10/26 06:10:48;;;;;;;;;;;8.40;99.90;;;;;;4859998;29;20014;-87
2023/10/26 06:13:14;;;;;;;;;;;8.40;99.90;;;;;;4844388;29;19928;-88
2023/10/26 06:15:40;;;;;;;;;;;8.40;99.90;;;;;;4863364;29;19929;-86
2023/10/26 06:18:05;;;;;;;;;;;8.40;99.90;;;;;;4863395;29;19928;-87
2023/10/26 06:20:33;;;;;;;;;;;8.40;99.90;;;;;;4862997;29;19928;-96
2023/10/26 06:22:59;;;;;;;;;;;8.40;99.90;;;;;;4848209;29;20324;-87
2023/10/26 06:25:25;;;;;;;;;;;8.50;99.90;;;;;;4863141;29;19928;-90
2023/10/26 06:27:51;;;;;;;;;;;8.50;99.90;;;;;;4847218;29;19928;-87
2023/10/26 06:30:16;;;;;;;;;;;8.50;99.90;;;;;;4862829;29;19928;-87
2023/10/26 06:32:42;;;;;;;;;;;8.60;99.90;;;;;;4863579;29;19951;-87
2023/10/26 06:35:08;;;;;;;;;;;8.60;99.90;;;;;;4862644;29;19928;-87
2023/10/26 06:37:33;;;;;;;;;;;8.60;99.90;;;;;;4862971;29;20023;-86
2023/10/26 06:39:59;;;;;;;;;;;8.60;99.90;;;;;;4863160;29;20399;-87
2023/10/26 06:42:25;;;;;;;;;;;8.60;99.90;;;;;;4864180;29;19932;-87
2023/10/26 06:44:50;;;;;;;;;;;8.70;99.90;;;;;;4862357;29;20015;-91
2023/10/26 06:47:16;;;;;;;;;;;8.70;99.90;;;;;;4862917;29;19971;-87
2023/10/26 06:49:43;;;;;;;;;;;8.70;99.90;;;;;;4847449;29;19928;-87
2023/10/26 06:52:08;;;;;;;;;;;8.70;99.90;;;;;;4864255;29;19928;-86
2023/10/26 06:54:34;;;;;;;;;;;8.70;99.90;;;;;;4863338;29;19993;-87
2023/10/26 06:57:00;;;;;;;;;;;8.70;99.90;;;;;;4862834;29;20014;-87
2023/10/26 06:59:25;;;;;;;;;;;8.70;99.90;;;;;;4862671;29;19928;-88
2023/10/26 07:01:51;;;;;;;;;;;8.70;99.90;;;;;;4846921;29;19935;-89
2023/10/26 07:04:17;;;;;;;;;;;8.70;99.90;;;;;;4862309;29;19976;-88
2023/10/26 07:06:42;;;;;;;;;;;8.70;99.90;;;;;;4862038;29;19957;-86
2023/10/26 07:09:08;;;;;;;;;;;8.80;99.90;;;;;;4862268;29;19928;-88
2023/10/26 07:11:33;;;;;;;;;;;8.80;99.90;;;;;;4862702;29;20023;-87
2023/10/26 07:13:59;;;;;;;;;;;8.80;99.90;;;;;;4862415;29;19928;-90
2023/10/26 07:16:25;;;;;;;;;;;8.80;99.90;;;;;;4846839;29;19932;-87
2023/10/26 07:18:50;;;;;;;;;;;8.90;99.90;;;;;;4862040;29;19935;-88
2023/10/26 07:21:16;;;;;;;;;;;8.90;99.90;;;;;;4862099;29;19928;-89
2023/10/26 07:23:42;;;;;;;;;;;8.90;99.90;;;;;;4862638;29;19934;-87
2023/10/26 07:26:07;;;;;;;;;;;9.00;99.90;;;;;;4861306;29;19935;-87
2023/10/26 07:28:33;;;;;;;;;;;9.00;99.90;;;;;;4862549;29;19931;-87
2023/10/26 07:30:58;;;;;;;;;;;9.00;99.90;;;;;;4862018;29;20011;-88
2023/10/26 07:33:24;;;;;;;;;;;9.10;99.90;;;;;;4862743;29;20436;-88
2023/10/26 07:35:56;;;;;;;;;;;9.20;99.90;;;;;;4861561;29;20023;-87
2023/10/26 07:38:24;;;;;;;;;;;9.20;99.90;;;;;;4862173;29;19929;-89
2023/10/26 07:40:54;;;;;;;;;;;9.20;99.90;;;;;;4864481;29;19932;-95
2023/10/26 07:43:20;;;;;;;;;;;9.20;99.90;;;;;;4849789;29;19959;-89
2023/10/26 07:45:46;;;;;;;;;;;9.30;99.90;;;;;;4862199;29;19928;-88
2023/10/26 07:48:12;;;;;;;;;;;9.20;99.90;;;;;;4862586;29;20304;-84
2023/10/26 07:50:38;;;;;;;;;;;9.30;99.90;;;;;;4862714;29;20023;-86
2023/10/26 07:53:05;;;;;;;;;;;9.40;99.90;;;;;;4861829;29;19932;-87
2023/10/26 07:55:31;;;;;;;;;;;9.40;99.90;;;;;;4861354;29;19989;-88
2023/10/26 07:57:57;;;;;;;;;;;9.40;99.90;;;;;;4861492;29;19979;-86
2023/10/26 08:00:22;;;;;;;;;;;9.50;99.90;;;;;;4862337;29;19976;-86
2023/10/26 08:02:48;;;;;;;;;;;9.50;99.90;;;;;;4861623;29;19951;-87
2023/10/26 08:05:15;;;;;;;;;;;9.50;99.90;;;;;;4861861;29;19939;-88
2023/10/26 08:07:41;;;;;;;;;;;9.50;99.90;;;;;;4861319;29;19934;-87
2023/10/26 08:10:09;;;;;;;;;;;9.50;99.90;;;;;;4861101;29;19928;-87
2023/10/26 08:12:35;;;;;;;;;;;9.60;99.90;;;;;;4861297;29;19948;-88
2023/10/26 08:15:02;;;;;;;;;;;9.60;99.90;;;;;;4862086;29;19935;-88
2023/10/26 08:17:28;;;;;;;;;;;9.60;99.90;;;;;;4861840;29;19928;-88
2023/10/26 08:19:54;;;;;;;;;;;9.70;99.90;;;;;;4862071;29;19939;-89
2023/10/26 08:22:23;;;;;;;;;;;9.70;99.90;;;;;;4860798;29;19928;-88
2023/10/26 08:24:48;;;;;;;;;;;9.80;99.90;;;;;;4861884;29;19947;-87
2023/10/26 08:27:14;;;;;;;;;;;9.80;99.90;;;;;;4861732;29;20372;-87
2023/10/26 08:29:40;;;;;;;;;;;9.80;99.90;;;;;;4861641;29;19951;-88
2023/10/26 08:32:06;;;;;;;;;;;9.80;99.90;;;;;;4861019;29;19975;-90
2023/10/26 08:34:34;;;;;;;;;;;9.80;99.90;;;;;;4860739;29;20424;-89
2023/10/26 08:37:00;;;;;;;;;;;9.90;99.90;;;;;;4861776;29;19928;-84
2023/10/26 08:39:26;;;;;;;;;;;10.00;99.90;;;;;;4862024;29;19983;-84
2023/10/26 08:41:51;;;;;;;;;;;10.00;99.90;;;;;;4845474;29;20299;-85
2023/10/26 08:44:17;;;;;;;;;;;10.10;99.90;;;;;;4861485;29;20018;-91
2023/10/26 08:46:51;;;;;;;;;;;10.10;99.90;;;;;;4861084;29;19976;-89
2023/10/26 08:49:17;;;;;;;;;;;10.10;99.90;;;;;;4860752;29;19934;-84
2023/10/26 08:51:43;;;;;;;;;;;10.20;99.90;;;;;;4861594;29;20023;-84
2023/10/26 08:54:09;;;;;;;;;;;10.20;99.90;;;;;;4862019;29;20039;-84
2023/10/26 08:56:34;;;;;;;;;;;10.20;99.90;;;;;;4862782;29;19932;-85
2023/10/26 08:59:02;;;;;;;;;;;10.20;99.90;;;;;;4862437;29;19975;-84
2023/10/26 09:01:28;;;;;;;;;;;10.20;99.90;;;;;;4862268;29;19928;-84
2023/10/26 09:03:53;;;;;;;;;;;10.30;99.90;;;;;;4862278;29;20004;-85
2023/10/26 09:06:19;;;;;;;;;;;10.30;99.90;;;;;;4861367;29;19928;-84
2023/10/26 09:08:58;;;;;;;;;;;10.40;99.90;;;;;;4860567;29;19928;-84
2023/10/26 09:11:25;;;;;;;;;;;10.50;99.90;;;;;;4861121;29;19939;-85
2023/10/26 09:13:52;;;;;;;;;;;10.60;99.90;;;;;;4861482;29;20349;-84
2023/10/26 09:16:18;;;;;;;;;;;10.60;99.90;;;;;;4860418;29;19928;-85
2023/10/26 09:18:50;;;;;;;;;;;10.60;99.90;;;;;;4860983;29;19980;-84
2023/10/26 09:21:16;;;;;;;;;;;10.70;99.90;;;;;;4861107;29;19929;-85
2023/10/26 09:23:42;;;;;;;;;;;10.80;99.90;;;;;;4861025;29;19958;-85
2023/10/26 09:26:09;;;;;;;;;;;10.80;99.90;;;;;;4861143;29;19980;-85
2023/10/26 09:28:48;;;;;;;;;;;10.90;99.90;;;;;;4861796;29;19929;-85
2023/10/26 09:31:13;;;;;;;;;;;11.00;99.90;;;;;;4861404;29;19967;-86
2023/10/26 09:33:39;;;;;;;;;;;11.00;99.90;;;;;;4860052;29;20327;-85
2023/10/26 09:36:12;;;;;;;;;;;11.00;99.90;;;;;;4861474;29;19928;-88
2023/10/26 09:38:38;;;;;;;;;;;11.00;99.90;;;;;;4845019;29;19928;-86
2023/10/26 09:41:06;;;;;;;;;;;11.00;99.90;;;;;;4860090;29;19954;-86
2023/10/26 09:43:32;;;;;;;;;;;11.00;99.90;;;;;;4861319;29;19972;-93
2023/10/26 09:45:57;;;;;;;;;;;11.00;99.90;;;;;;4860543;29;19957;-86
2023/10/26 09:48:24;;;;;;;;;;;11.00;99.90;;;;;;4860240;29;19940;-87
2023/10/26 09:50:52;;;;;;;;;;;11.00;99.90;;;;;;4864736;29;19944;-94
2023/10/26 09:53:20;;;;;;;;;;;11.00;99.90;;;;;;4864776;29;19928;-86
2023/10/26 09:55:47;;;;;;;;;;;11.00;99.90;;;;;;4864839;29;19957;-91
2023/10/26 09:58:14;;;;;;;;;;;11.10;99.90;;;;;;4863918;29;19981;-86
2023/10/26 10:00:40;;;;;;;;;;;11.10;99.90;;;;;;4863810;29;19927;-91
2023/10/26 10:03:13;;;;;;;;;;;11.10;99.90;;;;;;4863864;29;19928;-88
2023/10/26 10:05:39;;;;;;;;;;;11.10;99.90;;;;;;4863508;29;20372;-89
2023/10/26 10:08:05;;;;;;;;;;;11.10;99.90;;;;;;4849163;29;19928;-93
2023/10/26 10:10:30;;;;;;;;;;;11.10;99.90;;;;;;4866004;29;19985;-87
2023/10/26 10:12:56;;;;;;;;;;;11.20;99.90;;;;;;4865223;29;19983;-91
2023/10/26 10:15:34;;;;;;;;;;;11.40;99.90;;;;;;4863922;29;19984;-87
2023/10/26 10:18:01;;;;;;;;;;;11.50;99.90;;;;;;4863349;29;20340;-85
2023/10/26 10:20:27;;;;;;;;;;;11.70;99.90;;;;;;4864091;29;19951;-86
2023/10/26 10:22:54;;;;;;;;;;;11.90;99.90;;;;;;4863179;29;19935;-85
2023/10/26 10:25:23;;;;;;;;;;;12.10;99.90;;;;;;4864070;29;19928;-87
2023/10/26 10:27:48;;;;;;;;;;;12.30;99.90;;;;;;4862987;29;19928;-90
2023/10/26 10:30:14;;;;;;;;;;;12.30;99.90;;;;;;4863182;29;20437;-86
2023/10/26 10:32:49;;;;;;;;;;;12.20;99.90;;;;;;4864310;29;20037;-85
2023/10/26 10:35:20;;;;;;;;;;;12.30;99.90;;;;;;4864519;29;19931;-87
2023/10/26 10:38:05;;;;;;;;;;;12.20;99.90;;;;;;4863055;29;19938;-85
2023/10/26 10:40:33;;;;;;;;;;;12.10;99.90;;;;;;4864015;29;20033;-86
2023/10/26 10:42:58;;;;;;;;;;;12.10;99.90;;;;;;4863149;29;19932;-85
2023/10/26 10:45:24;;;;;;;;;;;12.10;99.90;;;;;;4864357;29;19932;-92
2023/10/26 10:47:49;;;;;;;;;;;12.10;99.90;;;;;;4863624;29;19936;-86
2023/10/26 10:50:15;;;;;;;;;;;12.10;99.90;;;;;;4862744;29;19971;-87
2023/10/26 10:52:41;;;;;;;;;;;12.10;99.90;;;;;;4863445;29;20014;-84
2023/10/26 10:55:06;;;;;;;;;;;12.30;99.90;;;;;;4862698;29;19935;-84
2023/10/26 10:57:32;;;;;;;;;;;12.30;99.90;;;;;;4848048;29;20058;-83
2023/10/26 10:59:58;;;;;;;;;;;12.50;99.90;;;;;;4863478;29;19928;-83
2023/10/26 11:02:23;;;;;;;;;;;12.60;99.90;;;;;;4863169;29;20023;-84
2023/10/26 11:04:56;;;;;;;;;;;12.60;99.90;;;;;;4847429;29;19950;-85
2023/10/26 11:07:28;;;;;;;;;;;12.70;99.90;;;;;;4847875;29;19928;-84
2023/10/26 11:09:57;;;;;;;;;;;12.70;99.90;;;;;;4862453;29;19932;-84
2023/10/26 11:12:23;;;;;;;;;;;12.70;99.90;;;;;;4862656;29;19928;-84
2023/10/26 11:14:49;;;;;;;;;;;12.70;99.90;;;;;;4862200;29;20402;-84
2023/10/26 11:17:17;;;;;;;;;;;12.70;99.90;;;;;;4863273;29;19928;-83
2023/10/26 11:19:42;;;;;;;;;;;12.70;99.90;;;;;;4862088;29;19928;-83
2023/10/26 11:22:08;;;;;;;;;;;12.70;99.90;;;;;;4862004;29;19928;-84
2023/10/26 11:24:35;;;;;;;;;;;12.70;99.90;;;;;;4862001;29;20257;-83
2023/10/26 11:27:07;;;;;;;;;;;12.70;99.90;;;;;;4863058;29;19928;-84
2023/10/26 11:29:33;;;;;;;;;;;12.70;99.90;;;;;;4862344;29;19950;-84
2023/10/26 11:31:59;;;;;;;;;;;12.70;99.90;;;;;;4862269;29;20369;-84
2023/10/26 11:34:27;;;;;;;;;;;12.70;99.90;;;;;;4863109;29;19928;-85
2023/10/26 11:36:53;;;;;;;;;;;12.70;99.90;;;;;;4862609;29;19964;-83
2023/10/26 11:39:19;;;;;;;;;;;12.70;99.90;;;;;;4861894;29;19935;-84
2023/10/26 11:41:54;;;;;;;;;;;12.70;99.90;;;;;;4862602;29;19932;-83
2023/10/26 11:44:25;;;;;;;;;;;12.60;99.90;;;;;;4861702;29;20394;-83
2023/10/26 11:47:00;;;;;;;;;;;12.50;99.90;;;;;;4861806;29;19928;-86
2023/10/26 11:49:38;;;;;;;;;;;12.40;99.90;;;;;;4862456;29;19936;-83
2023/10/26 11:52:04;;;;;;;;;;;12.40;99.90;;;;;;4862432;29;19932;-83
2023/10/26 11:54:29;;;;;;;;;;;12.40;99.90;;;;;;4846357;29;20320;-85
2023/10/26 11:56:55;;;;;;;;;;;12.40;99.90;;;;;;4861557;29;19967;-83
2023/10/26 11:59:21;;;;;;;;;;;12.40;99.90;;;;;;4862473;29;19928;-84
2023/10/26 12:01:46;;;;;;;;;;;12.30;99.90;;;;;;4846185;29;20372;-82
2023/10/26 12:04:12;;;;;;;;;;;12.30;99.90;;;;;;4861368;29;19928;-83
2023/10/26 12:06:38;;;;;;;;;;;12.20;99.90;;;;;;4861383;29;19928;-84
2023/10/26 12:09:05;;;;;;;;;;;12.20;99.90;;;;;;4861339;29;19992;-83
2023/10/26 12:11:34;;;;;;;;;;;12.10;99.90;;;;;;4845714;29;19928;-83
2023/10/26 12:14:00;;;;;;;;;;;12.20;99.90;;;;;;4861201;29;20454;-84
2023/10/26 12:16:25;;;;;;;;;;;12.20;99.90;;;;;;4861983;29;19928;-84
2023/10/26 12:18:51;;;;;;;;;;;12.10;99.90;;;;;;4861220;29;19983;-84
2023/10/26 12:21:17;;;;;;;;;;;12.10;99.90;;;;;;4861832;29;20054;-83
2023/10/26 12:23:42;;;;;;;;;;;12.00;99.90;;;;;;4845406;29;19928;-84
2023/10/26 12:26:08;;;;;;;;;;;12.10;99.90;;;;;;4861251;29;19978;-84
2023/10/26 12:28:34;;;;;;;;;;;12.00;99.90;;;;;;4860906;29;19940;-84
2023/10/26 12:30:59;;;;;;;;;;;12.00;99.90;;;;;;4861000;29;19928;-84
2023/10/26 12:33:27;;;;;;;;;;;12.00;99.90;;;;;;4845430;29;20360;-85
2023/10/26 12:35:53;;;;;;;;;;;12.00;99.90;;;;;;4860279;29;19928;-83
2023/10/26 12:38:19;;;;;;;;;;;12.10;99.90;;;;;;4863741;29;20019;-84
2023/10/26 12:40:48;;;;;;;;;;;12.20;99.90;;;;;;4863071;29;19928;-83
2023/10/26 12:43:14;;;;;;;;;;;12.30;99.90;;;;;;4861590;29;19932;-86
2023/10/26 12:45:39;;;;;;;;;;;12.40;99.90;;;;;;4845691;29;20007;-84
2023/10/26 12:48:05;;;;;;;;;;;12.60;99.90;;;;;;4861137;29;20368;-84
2023/10/26 12:50:30;;;;;;;;;;;12.70;99.90;;;;;;4860659;29;19951;-85
2023/10/26 12:52:56;;;;;;;;;;;12.80;99.90;;;;;;4845384;29;19928;-83
2023/10/26 12:55:23;;;;;;;;;;;13.00;99.90;;;;;;4861153;29;19928;-83
2023/10/26 12:57:52;;;;;;;;;;;13.10;99.90;;;;;;4845524;29;19928;-84
2023/10/26 13:00:18;;;;;;;;;;;13.20;99.90;;;;;;4861381;29;19943;-83
2023/10/26 13:02:44;;;;;;;;;;;13.20;99.90;;;;;;4860692;29;19936;-85
2023/10/26 13:05:09;;;;;;;;;;;13.20;99.90;;;;;;4860521;29;19928;-84
2023/10/26 13:07:35;;;;;;;;;;;13.30;99.90;;;;;;4861166;29;19932;-84
2023/10/26 13:10:01;;;;;;;;;;;13.30;99.90;;;;;;4860824;29;20008;-84
2023/10/26 13:12:26;;;;;;;;;;;13.40;99.90;;;;;;4860718;29;20256;-84
2023/10/26 13:14:52;;;;;;;;;;;13.30;99.90;;;;;;4845001;29;19928;-90
2023/10/26 13:17:18;;;;;;;;;;;13.40;99.90;;;;;;4844683;29;20400;-83
2023/10/26 13:19:44;;;;;;;;;;;13.40;99.90;;;;;;4860537;29;19954;-84
2023/10/26 13:22:09;;;;;;;;;;;13.30;99.90;;;;;;4860188;29;20372;-82
2023/10/26 13:24:35;;;;;;;;;;;13.30;99.90;;;;;;4864932;29;19928;-83
2023/10/26 13:27:00;;;;;;;;;;;13.40;99.90;;;;;;4866167;29;20068;-82
2023/10/26 13:29:26;;;;;;;;;;;13.30;99.90;;;;;;4867338;29;19929;-83
2023/10/26 13:31:51;;;;;;;;;;;13.30;99.90;;;;;;4866406;29;19935;-84
2023/10/26 13:34:17;;;;;;;;;;;13.20;99.90;;;;;;4866930;29;19970;-83
2023/10/26 13:36:43;;;;;;;;;;;13.10;99.90;;;;;;4866228;29;20291;-83
2023/10/26 13:39:08;;;;;;;;;;;13.00;99.90;;;;;;4866026;29;20295;-83
2023/10/26 13:41:34;;;;;;;;;;;13.00;99.90;;;;;;4866482;29;19936;-84
2023/10/26 13:44:00;;;;;;;;;;;12.90;99.90;;;;;;4867040;29;20018;-84
2023/10/26 13:46:25;;;;;;;;;;;12.80;99.90;;;;;;4866182;29;19935;-83
2023/10/26 13:48:51;;;;;;;;;;;12.80;99.90;;;;;;4866147;29;19972;-83
2023/10/26 13:51:17;;;;;;;;;;;12.80;99.90;;;;;;4881591;29;20046;-83
2023/10/26 13:53:43;;;;;;;;;;;12.80;99.90;;;;;;4867678;29;19929;-82
2023/10/26 13:56:09;;;;;;;;;;;12.80;99.90;;;;;;4867016;29;19928;-83
2023/10/26 13:58:34;;;;;;;;;;;12.80;99.90;;;;;;4867155;29;19976;-83
2023/10/26 14:01:00;;;;;;;;;;;12.80;99.90;;;;;;4867273;29;19935;-83
2023/10/26 14:03:25;;;;;;;;;;;12.80;99.90;;;;;;4865948;29;19934;-84
2023/10/26 14:05:52;;;;;;;;;;;12.80;99.90;;;;;;4866128;29;19943;-84
2023/10/26 14:08:18;;;;;;;;;;;12.70;99.90;;;;;;4866154;29;20256;-84
2023/10/26 14:10:44;;;;;;;;;;;12.70;99.90;;;;;;4850988;29;19928;-84
2023/10/26 14:13:09;;;;;;;;;;;12.70;99.90;;;;;;4866998;29;19932;-84
2023/10/26 14:15:35;;;;;;;;;;;12.70;99.90;;;;;;4865838;29;19943;-83
2023/10/26 14:18:01;;;;;;;;;;;12.70;99.90;;;;;;4867620;29;19928;-86